sensor_id;sensor_type;location;lat;lon;timestamp;temperature;humidity
35692;DHT22;26978;44.830;-0.674;2022-08-19T00:01:33;18.20;99.90
35692;DHT22;26978;44.830;-0.674;2022-08-19T00:04:00;18.20;99.90
35692;DHT22;26978;44.830;-0.674;2022-08-19T00:06:26;18.20;99.90
35692;DHT22;26978;44.830;-0.674;2022-08-19T00:08:52;18.20;99.90
35692;DHT22;26978;44.830;-0.674;2022-08-19T00:11:18;18.20;99.90
35692;DHT22;26978;44.830;-0.674;2022-08-19T00:13:44;18.20;99.90
35692;DHT22;26978;44.830;-0.674;2022-08-19T00:16:11;18.20;99.90
35692;DHT22;26978;44.830;-0.674;2022-08-19T00:18:37;18.20;99.90
35692;DHT22;26978;44.830;-0.674;2022-08-19T00:21:02;18.20;99.90
35692;DHT22;26978;44.830;-0.674;2022-08-19T00:23:28;18.20;99.90
35692;DHT22;26978;44.830;-0.674;2022-08-19T00:25:54;18.30;99.90
35692;DHT22;26978;44.830;-0.674;2022-08-19T00:28:20;18.20;99.90
35692;DHT22;26978;44.830;-0.674;2022-08-19T00:30:45;18.20;99.90
35692;DHT22;26978;44.830;-0.674;2022-08-19T00:33:11;18.20;99.90
35692;DHT22;26978;44.830;-0.674;2022-08-19T00:35:36;18.10;99.90
35692;DHT22;26978;44.830;-0.674;2022-08-19T00:38:04;18.00;99.90
35692;DHT22;26978;44.830;-0.674;2022-08-19T00:40:31;18.00;99.90
35692;DHT22;26978;44.830;-0.674;2022-08-19T00:42:57;17.90;99.90
35692;DHT22;26978;44.830;-0.674;2022-08-19T00:45:24;17.90;99.90
35692;DHT22;26978;44.830;-0.674;2022-08-19T00:47:51;17.80;99.90
35692;DHT22;26978;44.830;-0.674;2022-08-19T00:50:17;17.70;99.90
35692;DHT22;26978;44.830;-0.674;2022-08-19T00:52:45;17.70;99.90
35692;DHT22;26978;44.830;-0.674;2022-08-19T00:55:15;17.60;99.90
35692;DHT22;26978;44.830;-0.674;2022-08-19T00:57:46;17.50;99.90
35692;DHT22;26978;44.830;-0.674;2022-08-19T01:00:14;17.40;99.90
35692;DHT22;26978;44.830;-0.674;2022-08-19T01:02:40;17.40;99.90
35692;DHT22;26978;44.830;-0.674;2022-08-19T01:05:07;17.40;99.90
35692;DHT22;26978;44.830;-0.674;2022-08-19T01:07:34;17.20;99.90
35692;DHT22;26978;44.830;-0.674;2022-08-19T01:10:00;17.20;99.90
35692;DHT22;26978;44.830;-0.674;2022-08-19T01:12:26;17.20;99.90
35692;DHT22;26978;44.830;-0.674;2022-08-19T01:14:51;17.30;99.90
35692;DHT22;26978;44.830;-0.674;2022-08-19T01:17:17;17.30;99.90
35692;DHT22;26978;44.830;-0.674;2022-08-19T01:19:43;17.20;99.90
35692;DHT22;26978;44.830;-0.674;2022-08-19T01:22:25;17.20;99.90
35692;DHT22;26978;44.830;-0.674;2022-08-19T01:24:52;17.20;99.90
35692;DHT22;26978;44.830;-0.674;2022-08-19T01:27:17;17.20;99.90
35692;DHT22;26978;44.830;-0.674;2022-08-19T01:29:44;17.10;99.90
35692;DHT22;26978;44.830;-0.674;2022-08-19T01:32:11;17.00;99.90
35692;DHT22;26978;44.830;-0.674;2022-08-19T01:34:38;17.00;99.90
35692;DHT22;26978;44.830;-0.674;2022-08-19T01:37:07;17.00;99.90
35692;DHT22;26978;44.830;-0.674;2022-08-19T01:39:33;17.00;99.90
35692;DHT22;26978;44.830;-0.674;2022-08-19T01:41:59;17.00;99.90
35692;DHT22;26978;44.830;-0.674;2022-08-19T01:44:28;16.90;99.90
35692;DHT22;26978;44.830;-0.674;2022-08-19T01:46:53;17.00;99.90
35692;DHT22;26978;44.830;-0.674;2022-08-19T01:49:20;16.90;99.90
35692;DHT22;26978;44.830;-0.674;2022-08-19T01:51:46;16.90;99.90
35692;DHT22;26978;44.830;-0.674;2022-08-19T01:54:12;16.80;99.90
35692;DHT22;26978;44.830;-0.674;2022-08-19T01:56:38;16.90;99.90
35692;DHT22;26978;44.830;-0.674;2022-08-19T01:59:05;16.80;99.90
35692;DHT22;26978;44.830;-0.674;2022-08-19T02:01:33;16.80;99.90
35692;DHT22;26978;44.830;-0.674;2022-08-19T02:03:59;16.70;99.90
35692;DHT22;26978;44.830;-0.674;2022-08-19T02:06:26;16.70;99.90
35692;DHT22;26978;44.830;-0.674;2022-08-19T02:08:51;16.60;99.90
35692;DHT22;26978;44.830;-0.674;2022-08-19T02:11:21;16.50;99.90
35692;DHT22;26978;44.830;-0.674;2022-08-19T02:13:47;16.50;99.90
35692;DHT22;26978;44.830;-0.674;2022-08-19T02:16:15;16.60;99.90
35692;DHT22;26978;44.830;-0.674;2022-08-19T02:18:40;16.70;99.90
35692;DHT22;26978;44.830;-0.674;2022-08-19T02:21:06;16.80;99.90
35692;DHT22;26978;44.830;-0.674;2022-08-19T02:23:32;16.80;99.90
35692;DHT22;26978;44.830;-0.674;2022-08-19T02:25:57;16.80;99.90
35692;DHT22;26978;44.830;-0.674;2022-08-19T02:28:23;16.80;99.90
35692;DHT22;26978;44.830;-0.674;2022-08-19T02:30:49;16.80;99.90
35692;DHT22;26978;44.830;-0.674;2022-08-19T02:33:14;16.80;99.90
35692;DHT22;26978;44.830;-0.674;2022-08-19T02:35:41;16.80;99.90
35692;DHT22;26978;44.830;-0.674;2022-08-19T02:38:07;16.70;99.90
35692;DHT22;26978;44.830;-0.674;2022-08-19T02:40:52;16.80;99.90
35692;DHT22;26978;44.830;-0.674;2022-08-19T02:43:18;16.80;99.90
35692;DHT22;26978;44.830;-0.674;2022-08-19T02:45:45;16.70;99.90
35692;DHT22;26978;44.830;-0.674;2022-08-19T02:48:11;16.70;99.90
35692;DHT22;26978;44.830;-0.674;2022-08-19T02:50:39;16.70;99.90
35692;DHT22;26978;44.830;-0.674;2022-08-19T02:53:05;16.60;99.90
35692;DHT22;26978;44.830;-0.674;2022-08-19T02:55:32;16.60;99.90
35692;DHT22;26978;44.830;-0.674;2022-08-19T02:57:58;16.60;99.90
35692;DHT22;26978;44.830;-0.674;2022-08-19T03:00:25;16.60;99.90
35692;DHT22;26978;44.830;-0.674;2022-08-19T03:02:51;16.60;99.90
35692;DHT22;26978;44.830;-0.674;2022-08-19T03:05:16;16.60;99.90
35692;DHT22;26978;44.830;-0.674;2022-08-19T03:07:42;16.60;99.90
35692;DHT22;26978;44.830;-0.674;2022-08-19T03:10:08;16.50;99.90
35692;DHT22;26978;44.830;-0.674;2022-08-19T03:12:37;16.50;99.90
35692;DHT22;26978;44.830;-0.674;2022-08-19T03:15:04;16.50;99.90
35692;DHT22;26978;44.830;-0.674;2022-08-19T03:17:29;16.50;99.90
35692;DHT22;26978;44.830;-0.674;2022-08-19T03:19:55;16.50;99.90
35692;DHT22;26978;44.830;-0.674;2022-08-19T03:22:20;16.50;99.90
35692;DHT22;26978;44.830;-0.674;2022-08-19T03:24:46;16.40;99.90
35692;DHT22;26978;44.830;-0.674;2022-08-19T03:27:11;16.40;99.90
35692;DHT22;26978;44.830;-0.674;2022-08-19T03:29:37;16.40;99.90
35692;DHT22;26978;44.830;-0.674;2022-08-19T03:32:03;16.50;99.90
35692;DHT22;26978;44.830;-0.674;2022-08-19T03:34:29;16.50;99.90
35692;DHT22;26978;44.830;-0.674;2022-08-19T03:36:57;16.50;99.90
35692;DHT22;26978;44.830;-0.674;2022-08-19T03:39:23;16.60;99.90
35692;DHT22;26978;44.830;-0.674;2022-08-19T03:41:49;16.60;99.90
35692;DHT22;26978;44.830;-0.674;2022-08-19T03:44:17;16.60;99.90
35692;DHT22;26978;44.830;-0.674;2022-08-19T03:46:43;16.60;99.90
35692;DHT22;26978;44.830;-0.674;2022-08-19T03:49:08;16.70;99.90
35692;DHT22;26978;44.830;-0.674;2022-08-19T03:51:36;16.70;99.90
35692;DHT22;26978;44.830;-0.674;2022-08-19T03:54:04;16.70;99.90
35692;DHT22;26978;44.830;-0.674;2022-08-19T03:56:30;16.70;99.90
35692;DHT22;26978;44.830;-0.674;2022-08-19T03:58:56;16.70;99.90
35692;DHT22;26978;44.830;-0.674;2022-08-19T04:01:24;16.70;99.90
35692;DHT22;26978;44.830;-0.674;2022-08-19T04:03:52;16.70;99.90
35692;DHT22;26978;44.830;-0.674;2022-08-19T04:06:22;16.80;99.90
35692;DHT22;26978;44.830;-0.674;2022-08-19T04:08:48;16.70;99.90
35692;DHT22;26978;44.830;-0.674;2022-08-19T04:11:17;16.60;99.90
35692;DHT22;26978;44.830;-0.674;2022-08-19T04:13:43;16.60;99.90
35692;DHT22;26978;44.830;-0.674;2022-08-19T04:16:10;16.60;99.90
35692;DHT22;26978;44.830;-0.674;2022-08-19T04:18:35;16.60;99.90
35692;DHT22;26978;44.830;-0.674;2022-08-19T04:21:01;16.50;99.90
35692;DHT22;26978;44.830;-0.674;2022-08-19T04:23:27;16.50;99.90
35692;DHT22;26978;44.830;-0.674;2022-08-19T04:25:56;16.50;99.90
35692;DHT22;26978;44.830;-0.674;2022-08-19T04:28:22;16.50;99.90
35692;DHT22;26978;44.830;-0.674;2022-08-19T04:30:49;16.50;99.90
35692;DHT22;26978;44.830;-0.674;2022-08-19T04:33:16;16.40;99.90
35692;DHT22;26978;44.830;-0.674;2022-08-19T04:35:43;16.40;99.90
35692;DHT22;26978;44.830;-0.674;2022-08-19T04:38:09;16.20;99.90
35692;DHT22;26978;44.830;-0.674;2022-08-19T04:40:39;16.20;99.90
35692;DHT22;26978;44.830;-0.674;2022-08-19T04:43:23;16.20;99.90
35692;DHT22;26978;44.830;-0.674;2022-08-19T04:45:48;16.30;99.90
35692;DHT22;26978;44.830;-0.674;2022-08-19T04:48:14;16.20;99.90
35692;DHT22;26978;44.830;-0.674;2022-08-19T04:50:40;16.10;99.90
35692;DHT22;26978;44.830;-0.674;2022-08-19T04:53:06;16.10;99.90
35692;DHT22;26978;44.830;-0.674;2022-08-19T04:55:32;16.10;99.90
35692;DHT22;26978;44.830;-0.674;2022-08-19T04:57:58;16.10;99.90
35692;DHT22;26978;44.830;-0.674;2022-08-19T05:00:23;16.20;99.90
35692;DHT22;26978;44.830;-0.674;2022-08-19T05:02:49;16.20;99.90
35692;DHT22;26978;44.830;-0.674;2022-08-19T05:05:14;16.20;99.90
35692;DHT22;26978;44.830;-0.674;2022-08-19T05:07:40;16.20;99.90
35692;DHT22;26978;44.830;-0.674;2022-08-19T05:10:06;16.10;99.90
35692;DHT22;26978;44.830;-0.674;2022-08-19T05:12:32;16.20;99.90
35692;DHT22;26978;44.830;-0.674;2022-08-19T05:14:58;16.20;99.90
35692;DHT22;26978;44.830;-0.674;2022-08-19T05:17:26;16.10;99.90
35692;DHT22;26978;44.830;-0.674;2022-08-19T05:19:52;16.10;99.90
35692;DHT22;26978;44.830;-0.674;2022-08-19T05:22:36;16.10;99.90
35692;DHT22;26978;44.830;-0.674;2022-08-19T05:25:09;16.10;99.90
35692;DHT22;26978;44.830;-0.674;2022-08-19T05:27:35;16.20;99.90
35692;DHT22;26978;44.830;-0.674;2022-08-19T05:30:01;16.10;99.90
35692;DHT22;26978;44.830;-0.674;2022-08-19T05:32:27;16.10;99.90
35692;DHT22;26978;44.830;-0.674;2022-08-19T05:34:52;16.10;99.90
35692;DHT22;26978;44.830;-0.674;2022-08-19T05:37:18;16.10;99.90
35692;DHT22;26978;44.830;-0.674;2022-08-19T05:39:43;16.20;99.90
35692;DHT22;26978;44.830;-0.674;2022-08-19T05:42:10;16.20;99.90
35692;DHT22;26978;44.830;-0.674;2022-08-19T05:44:37;16.20;99.90
35692;DHT22;26978;44.830;-0.674;2022-08-19T05:47:04;16.30;99.90
35692;DHT22;26978;44.830;-0.674;2022-08-19T05:49:31;16.20;99.90
35692;DHT22;26978;44.830;-0.674;2022-08-19T05:51:57;16.30;99.90
35692;DHT22;26978;44.830;-0.674;2022-08-19T05:54:23;16.30;99.90
35692;DHT22;26978;44.830;-0.674;2022-08-19T05:56:50;16.30;99.90
35692;DHT22;26978;44.830;-0.674;2022-08-19T05:59:16;16.40;99.90
35692;DHT22;26978;44.830;-0.674;2022-08-19T06:01:42;16.50;99.90
35692;DHT22;26978;44.830;-0.674;2022-08-19T06:04:08;16.50;99.90
35692;DHT22;26978;44.830;-0.674;2022-08-19T06:06:34;16.60;99.90
35692;DHT22;26978;44.830;-0.674;2022-08-19T06:09:01;16.70;99.90
35692;DHT22;26978;44.830;-0.674;2022-08-19T06:11:59;16.80;99.90
35692;DHT22;26978;44.830;-0.674;2022-08-19T06:14:20;16.90;99.90
35692;DHT22;26978;44.830;-0.674;2022-08-19T06:16:46;17.00;99.90
35692;DHT22;26978;44.830;-0.674;2022-08-19T06:19:13;17.10;99.90
35692;DHT22;26978;44.830;-0.674;2022-08-19T06:21:39;17.20;99.90
35692;DHT22;26978;44.830;-0.674;2022-08-19T06:24:06;17.30;99.90
35692;DHT22;26978;44.830;-0.674;2022-08-19T06:26:33;17.40;99.90
35692;DHT22;26978;44.830;-0.674;2022-08-19T06:28:59;17.50;99.90
35692;DHT22;26978;44.830;-0.674;2022-08-19T06:31:27;17.60;99.90
35692;DHT22;26978;44.830;-0.674;2022-08-19T06:33:52;17.60;99.90
35692;DHT22;26978;44.830;-0.674;2022-08-19T06:36:28;17.70;99.90
35692;DHT22;26978;44.830;-0.674;2022-08-19T06:39:05;17.80;99.90
35692;DHT22;26978;44.830;-0.674;2022-08-19T06:41:34;17.90;99.90
35692;DHT22;26978;44.830;-0.674;2022-08-19T06:43:59;18.10;99.90
35692;DHT22;26978;44.830;-0.674;2022-08-19T06:46:25;18.10;99.90
35692;DHT22;26978;44.830;-0.674;2022-08-19T06:48:51;18.30;99.90
35692;DHT22;26978;44.830;-0.674;2022-08-19T06:51:18;18.30;99.90
35692;DHT22;26978;44.830;-0.674;2022-08-19T06:53:45;18.40;99.90
35692;DHT22;26978;44.830;-0.674;2022-08-19T06:56:13;18.70;99.90
35692;DHT22;26978;44.830;-0.674;2022-08-19T06:58:39;18.70;99.90
35692;DHT22;26978;44.830;-0.674;2022-08-19T07:01:04;18.70;99.90
35692;DHT22;26978;44.830;-0.674;2022-08-19T07:03:31;18.90;99.90
35692;DHT22;26978;44.830;-0.674;2022-08-19T07:05:57;19.10;99.90
35692;DHT22;26978;44.830;-0.674;2022-08-19T07:08:24;19.30;99.90
35692;DHT22;26978;44.830;-0.674;2022-08-19T07:10:52;19.30;99.90
35692;DHT22;26978;44.830;-0.674;2022-08-19T07:13:17;19.30;99.90
35692;DHT22;26978;44.830;-0.674;2022-08-19T07:15:44;19.60;99.90
35692;DHT22;26978;44.830;-0.674;2022-08-19T07:18:11;19.70;99.90
35692;DHT22;26978;44.830;-0.674;2022-08-19T07:20:37;19.70;99.90
35692;DHT22;26978;44.830;-0.674;2022-08-19T07:23:04;19.70;99.90
35692;DHT22;26978;44.830;-0.674;2022-08-19T07:25:29;19.90;99.90
35692;DHT22;26978;44.830;-0.674;2022-08-19T07:27:55;20.20;99.90
35692;DHT22;26978;44.830;-0.674;2022-08-19T07:30:20;20.30;99.90
35692;DHT22;26978;44.830;-0.674;2022-08-19T07:32:47;20.60;99.90
35692;DHT22;26978;44.830;-0.674;2022-08-19T07:35:13;20.60;99.90
35692;DHT22;26978;44.830;-0.674;2022-08-19T07:37:38;20.60;99.90
35692;DHT22;26978;44.830;-0.674;2022-08-19T07:40:09;20.60;99.90
35692;DHT22;26978;44.830;-0.674;2022-08-19T07:42:35;20.90;99.90
35692;DHT22;26978;44.830;-0.674;2022-08-19T07:45:00;20.90;99.90
35692;DHT22;26978;44.830;-0.674;2022-08-19T07:47:26;20.70;99.90
35692;DHT22;26978;44.830;-0.674;2022-08-19T07:49:52;20.80;99.90
35692;DHT22;26978;44.830;-0.674;2022-08-19T07:52:18;20.80;99.90
35692;DHT22;26978;44.830;-0.674;2022-08-19T07:54:43;20.90;99.90
35692;DHT22;26978;44.830;-0.674;2022-08-19T07:57:09;21.00;99.90
35692;DHT22;26978;44.830;-0.674;2022-08-19T07:59:35;21.10;99.90
35692;DHT22;26978;44.830;-0.674;2022-08-19T08:02:01;21.10;99.90
35692;DHT22;26978;44.830;-0.674;2022-08-19T08:04:28;21.50;99.90
35692;DHT22;26978;44.830;-0.674;2022-08-19T08:07:12;21.60;99.90
35692;DHT22;26978;44.830;-0.674;2022-08-19T08:09:56;21.70;99.90
35692;DHT22;26978;44.830;-0.674;2022-08-19T08:12:24;21.30;99.90
35692;DHT22;26978;44.830;-0.674;2022-08-19T08:14:54;21.50;99.90
35692;DHT22;26978;44.830;-0.674;2022-08-19T08:17:23;21.40;99.90
35692;DHT22;26978;44.830;-0.674;2022-08-19T08:19:49;21.40;99.90
35692;DHT22;26978;44.830;-0.674;2022-08-19T08:22:16;21.40;99.90
35692;DHT22;26978;44.830;-0.674;2022-08-19T08:25:08;21.60;99.90
35692;DHT22;26978;44.830;-0.674;2022-08-19T08:27:37;21.70;99.90
35692;DHT22;26978;44.830;-0.674;2022-08-19T08:30:13;21.80;99.90
35692;DHT22;26978;44.830;-0.674;2022-08-19T08:32:39;21.80;99.90
35692;DHT22;26978;44.830;-0.674;2022-08-19T08:35:05;22.30;99.90
35692;DHT22;26978;44.830;-0.674;2022-08-19T08:37:31;22.20;99.90
35692;DHT22;26978;44.830;-0.674;2022-08-19T08:39:57;22.00;99.90
35692;DHT22;26978;44.830;-0.674;2022-08-19T08:42:32;22.40;99.90
35692;DHT22;26978;44.830;-0.674;2022-08-19T08:45:00;22.60;99.90
35692;DHT22;26978;44.830;-0.674;2022-08-19T08:47:28;22.70;99.90
35692;DHT22;26978;44.830;-0.674;2022-08-19T08:49:59;22.80;99.90
35692;DHT22;26978;44.830;-0.674;2022-08-19T08:52:30;23.20;99.90
35692;DHT22;26978;44.830;-0.674;2022-08-19T08:54:59;23.00;99.90
35692;DHT22;26978;44.830;-0.674;2022-08-19T08:59:53;23.20;99.90
35692;DHT22;26978;44.830;-0.674;2022-08-19T09:02:19;23.50;99.90
35692;DHT22;26978;44.830;-0.674;2022-08-19T09:04:45;23.60;99.90
35692;DHT22;26978;44.830;-0.674;2022-08-19T09:07:24;23.70;99.90
35692;DHT22;26978;44.830;-0.674;2022-08-19T09:09:52;23.70;99.90
35692;DHT22;26978;44.830;-0.674;2022-08-19T09:14:53;23.70;99.90
35692;DHT22;26978;44.830;-0.674;2022-08-19T09:17:21;23.40;99.90
35692;DHT22;26978;44.830;-0.674;2022-08-19T09:20:03;23.50;99.90
35692;DHT22;26978;44.830;-0.674;2022-08-19T09:22:33;23.40;99.90
35692;DHT22;26978;44.830;-0.674;2022-08-19T09:24:59;23.10;99.90
35692;DHT22;26978;44.830;-0.674;2022-08-19T09:27:25;23.30;99.90
35692;DHT22;26978;44.830;-0.674;2022-08-19T09:29:52;24.00;99.90
35692;DHT22;26978;44.830;-0.674;2022-08-19T09:32:19;24.10;99.90
35692;DHT22;26978;44.830;-0.674;2022-08-19T09:34:45;24.00;99.90
35692;DHT22;26978;44.830;-0.674;2022-08-19T09:37:10;24.40;99.90
35692;DHT22;26978;44.830;-0.674;2022-08-19T09:39:37;24.00;99.90
35692;DHT22;26978;44.830;-0.674;2022-08-19T09:42:02;23.90;99.90
35692;DHT22;26978;44.830;-0.674;2022-08-19T09:44:28;24.00;99.90
35692;DHT22;26978;44.830;-0.674;2022-08-19T09:46:54;24.20;99.90
35692;DHT22;26978;44.830;-0.674;2022-08-19T09:49:21;24.50;99.90
35692;DHT22;26978;44.830;-0.674;2022-08-19T09:51:51;24.20;99.90
35692;DHT22;26978;44.830;-0.674;2022-08-19T09:54:17;23.90;99.90
35692;DHT22;26978;44.830;-0.674;2022-08-19T09:56:43;23.90;99.90
35692;DHT22;26978;44.830;-0.674;2022-08-19T09:59:09;23.80;99.90
35692;DHT22;26978;44.830;-0.674;2022-08-19T10:01:37;23.90;99.90
35692;DHT22;26978;44.830;-0.674;2022-08-19T10:04:03;23.80;99.90
35692;DHT22;26978;44.830;-0.674;2022-08-19T10:06:33;24.20;99.90
35692;DHT22;26978;44.830;-0.674;2022-08-19T10:08:59;24.30;99.90
35692;DHT22;26978;44.830;-0.674;2022-08-19T10:11:25;24.60;99.90
35692;DHT22;26978;44.830;-0.674;2022-08-19T10:13:51;24.70;99.90
35692;DHT22;26978;44.830;-0.674;2022-08-19T10:16:18;24.30;99.90
35692;DHT22;26978;44.830;-0.674;2022-08-19T10:18:46;23.50;99.90
35692;DHT22;26978;44.830;-0.674;2022-08-19T10:21:16;23.30;99.90
35692;DHT22;26978;44.830;-0.674;2022-08-19T10:23:45;23.20;99.90
35692;DHT22;26978;44.830;-0.674;2022-08-19T10:26:34;23.90;99.90
35692;DHT22;26978;44.830;-0.674;2022-08-19T10:29:01;24.50;99.90
35692;DHT22;26978;44.830;-0.674;2022-08-19T10:31:43;24.90;99.90
35692;DHT22;26978;44.830;-0.674;2022-08-19T10:34:08;25.30;99.90
35692;DHT22;26978;44.830;-0.674;2022-08-19T10:36:35;25.30;99.80
35692;DHT22;26978;44.830;-0.674;2022-08-19T10:39:04;25.00;99.90
35692;DHT22;26978;44.830;-0.674;2022-08-19T10:41:31;25.10;99.90
35692;DHT22;26978;44.830;-0.674;2022-08-19T10:43:58;25.40;99.90
35692;DHT22;26978;44.830;-0.674;2022-08-19T10:46:25;25.70;98.80
35692;DHT22;26978;44.830;-0.674;2022-08-19T10:48:52;25.80;96.90
35692;DHT22;26978;44.830;-0.674;2022-08-19T10:51:18;25.00;98.40
35692;DHT22;26978;44.830;-0.674;2022-08-19T10:54:03;24.80;99.00
35692;DHT22;26978;44.830;-0.674;2022-08-19T10:56:28;24.70;99.70
35692;DHT22;26978;44.830;-0.674;2022-08-19T10:59:13;24.80;99.90
35692;DHT22;26978;44.830;-0.674;2022-08-19T11:01:39;24.90;99.90
35692;DHT22;26978;44.830;-0.674;2022-08-19T11:04:05;24.60;99.90
35692;DHT22;26978;44.830;-0.674;2022-08-19T11:06:33;24.50;99.90
35692;DHT22;26978;44.830;-0.674;2022-08-19T11:08:59;24.80;99.90
35692;DHT22;26978;44.830;-0.674;2022-08-19T11:11:25;24.60;99.90
35692;DHT22;26978;44.830;-0.674;2022-08-19T11:13:51;24.70;99.90
35692;DHT22;26978;44.830;-0.674;2022-08-19T11:16:19;24.40;99.90
35692;DHT22;26978;44.830;-0.674;2022-08-19T11:18:47;24.50;99.90
35692;DHT22;26978;44.830;-0.674;2022-08-19T11:23:46;24.90;99.90
35692;DHT22;26978;44.830;-0.674;2022-08-19T11:26:12;25.20;99.90
35692;DHT22;26978;44.830;-0.674;2022-08-19T11:28:38;25.00;99.90
35692;DHT22;26978;44.830;-0.674;2022-08-19T11:31:04;25.40;99.60
35692;DHT22;26978;44.830;-0.674;2022-08-19T11:33:30;25.90;97.80
35692;DHT22;26978;44.830;-0.674;2022-08-19T11:35:58;25.90;98.40
35692;DHT22;26978;44.830;-0.674;2022-08-19T11:38:25;25.80;98.30
35692;DHT22;26978;44.830;-0.674;2022-08-19T11:40:54;25.80;97.40
35692;DHT22;26978;44.830;-0.674;2022-08-19T11:43:20;26.00;97.50
35692;DHT22;26978;44.830;-0.674;2022-08-19T11:45:45;26.10;97.70
35692;DHT22;26978;44.830;-0.674;2022-08-19T11:48:13;26.40;98.10
35692;DHT22;26978;44.830;-0.674;2022-08-19T11:50:38;26.90;96.80
35692;DHT22;26978;44.830;-0.674;2022-08-19T11:53:06;26.70;96.30
35692;DHT22;26978;44.830;-0.674;2022-08-19T11:55:31;26.60;97.30
35692;DHT22;26978;44.830;-0.674;2022-08-19T11:57:57;26.70;96.80
35692;DHT22;26978;44.830;-0.674;2022-08-19T12:00:23;26.30;97.30
35692;DHT22;26978;44.830;-0.674;2022-08-19T12:02:48;26.40;97.20
35692;DHT22;26978;44.830;-0.674;2022-08-19T12:05:16;26.30;97.50
35692;DHT22;26978;44.830;-0.674;2022-08-19T12:07:41;25.90;97.80
35692;DHT22;26978;44.830;-0.674;2022-08-19T12:10:08;25.70;98.00
35692;DHT22;26978;44.830;-0.674;2022-08-19T12:12:33;25.80;99.20
35692;DHT22;26978;44.830;-0.674;2022-08-19T12:14:59;25.70;98.80
35692;DHT22;26978;44.830;-0.674;2022-08-19T12:17:25;25.80;98.40
35692;DHT22;26978;44.830;-0.674;2022-08-19T12:19:51;25.90;98.40
35692;DHT22;26978;44.830;-0.674;2022-08-19T12:22:17;25.90;98.20
35692;DHT22;26978;44.830;-0.674;2022-08-19T12:24:43;25.90;97.90
35692;DHT22;26978;44.830;-0.674;2022-08-19T12:27:09;25.70;99.00
35692;DHT22;26978;44.830;-0.674;2022-08-19T12:29:34;25.00;99.90
35692;DHT22;26978;44.830;-0.674;2022-08-19T12:32:00;25.10;99.90
35692;DHT22;26978;44.830;-0.674;2022-08-19T12:34:27;25.10;99.90
35692;DHT22;26978;44.830;-0.674;2022-08-19T12:36:56;24.80;99.90
35692;DHT22;26978;44.830;-0.674;2022-08-19T12:39:21;24.40;99.90
35692;DHT22;26978;44.830;-0.674;2022-08-19T12:41:47;23.70;99.90
35692;DHT22;26978;44.830;-0.674;2022-08-19T12:44:14;23.20;99.90
35692;DHT22;26978;44.830;-0.674;2022-08-19T12:46:40;23.10;99.90
35692;DHT22;26978;44.830;-0.674;2022-08-19T12:49:05;23.40;99.90
35692;DHT22;26978;44.830;-0.674;2022-08-19T12:51:31;23.70;99.90
35692;DHT22;26978;44.830;-0.674;2022-08-19T12:53:56;24.20;99.90
35692;DHT22;26978;44.830;-0.674;2022-08-19T12:56:22;24.50;99.90
35692;DHT22;26978;44.830;-0.674;2022-08-19T12:58:48;24.80;99.90
35692;DHT22;26978;44.830;-0.674;2022-08-19T13:01:15;24.90;99.90
35692;DHT22;26978;44.830;-0.674;2022-08-19T13:03:41;24.60;99.90
35692;DHT22;26978;44.830;-0.674;2022-08-19T13:06:08;24.30;99.90
35692;DHT22;26978;44.830;-0.674;2022-08-19T13:08:34;24.50;99.90
35692;DHT22;26978;44.830;-0.674;2022-08-19T13:11:06;24.40;99.90
35692;DHT22;26978;44.830;-0.674;2022-08-19T13:13:32;24.50;99.90
35692;DHT22;26978;44.830;-0.674;2022-08-19T13:15:59;25.50;99.90
35692;DHT22;26978;44.830;-0.674;2022-08-19T13:18:27;26.80;99.90
35692;DHT22;26978;44.830;-0.674;2022-08-19T13:20:52;27.20;99.80
35692;DHT22;26978;44.830;-0.674;2022-08-19T13:23:18;26.20;99.90
35692;DHT22;26978;44.830;-0.674;2022-08-19T13:25:43;26.60;99.90
35692;DHT22;26978;44.830;-0.674;2022-08-19T13:28:09;26.30;99.60
35692;DHT22;26978;44.830;-0.674;2022-08-19T13:30:34;26.30;99.90
35692;DHT22;26978;44.830;-0.674;2022-08-19T13:33:19;26.30;99.90
35692;DHT22;26978;44.830;-0.674;2022-08-19T13:35:49;27.00;98.20
35692;DHT22;26978;44.830;-0.674;2022-08-19T13:38:16;27.90;97.70
35692;DHT22;26978;44.830;-0.674;2022-08-19T13:40:42;28.90;94.00
35692;DHT22;26978;44.830;-0.674;2022-08-19T13:43:08;28.10;94.70
35692;DHT22;26978;44.830;-0.674;2022-08-19T13:45:34;27.20;96.10
35692;DHT22;26978;44.830;-0.674;2022-08-19T13:48:01;26.80;97.40
35692;DHT22;26978;44.830;-0.674;2022-08-19T13:50:32;26.30;98.20
35692;DHT22;26978;44.830;-0.674;2022-08-19T13:52:58;25.90;99.30
35692;DHT22;26978;44.830;-0.674;2022-08-19T13:55:23;25.60;99.90
35692;DHT22;26978;44.830;-0.674;2022-08-19T13:57:50;25.30;99.90
35692;DHT22;26978;44.830;-0.674;2022-08-19T14:00:16;24.80;99.90
35692;DHT22;26978;44.830;-0.674;2022-08-19T14:02:45;25.00;99.90
35692;DHT22;26978;44.830;-0.674;2022-08-19T14:05:12;25.10;99.90
35692;DHT22;26978;44.830;-0.674;2022-08-19T14:07:38;25.30;99.90
35692;DHT22;26978;44.830;-0.674;2022-08-19T14:10:05;25.50;99.90
35692;DHT22;26978;44.830;-0.674;2022-08-19T14:12:31;25.40;99.90
35692;DHT22;26978;44.830;-0.674;2022-08-19T14:14:57;26.10;99.90
35692;DHT22;26978;44.830;-0.674;2022-08-19T14:17:23;27.60;98.40
35692;DHT22;26978;44.830;-0.674;2022-08-19T14:19:55;27.50;97.30
35692;DHT22;26978;44.830;-0.674;2022-08-19T14:22:21;26.90;98.10
35692;DHT22;26978;44.830;-0.674;2022-08-19T14:24:46;26.10;99.90
35692;DHT22;26978;44.830;-0.674;2022-08-19T14:27:13;25.90;99.90
35692;DHT22;26978;44.830;-0.674;2022-08-19T14:29:39;25.90;99.90
35692;DHT22;26978;44.830;-0.674;2022-08-19T14:32:05;25.60;99.90
35692;DHT22;26978;44.830;-0.674;2022-08-19T14:34:31;25.60;99.90
35692;DHT22;26978;44.830;-0.674;2022-08-19T14:36:57;26.30;99.90
35692;DHT22;26978;44.830;-0.674;2022-08-19T14:39:22;26.10;99.90
35692;DHT22;26978;44.830;-0.674;2022-08-19T14:41:48;26.10;99.90
35692;DHT22;26978;44.830;-0.674;2022-08-19T14:44:14;26.20;99.90
35692;DHT22;26978;44.830;-0.674;2022-08-19T14:46:39;26.10;99.90
35692;DHT22;26978;44.830;-0.674;2022-08-19T14:49:05;25.80;99.90
35692;DHT22;26978;44.830;-0.674;2022-08-19T14:51:31;25.90;99.90
35692;DHT22;26978;44.830;-0.674;2022-08-19T14:53:57;26.50;99.30
35692;DHT22;26978;44.830;-0.674;2022-08-19T14:56:26;27.80;96.90
35692;DHT22;26978;44.830;-0.674;2022-08-19T14:58:52;29.50;93.60
35692;DHT22;26978;44.830;-0.674;2022-08-19T15:01:18;29.80;91.80
35692;DHT22;26978;44.830;-0.674;2022-08-19T15:03:45;29.20;91.90
35692;DHT22;26978;44.830;-0.674;2022-08-19T15:06:11;28.50;93.50
35692;DHT22;26978;44.830;-0.674;2022-08-19T15:08:37;29.70;91.60
35692;DHT22;26978;44.830;-0.674;2022-08-19T15:11:07;30.90;88.00
35692;DHT22;26978;44.830;-0.674;2022-08-19T15:13:35;29.70;88.90
35692;DHT22;26978;44.830;-0.674;2022-08-19T15:16:01;29.70;90.80
35692;DHT22;26978;44.830;-0.674;2022-08-19T15:18:26;29.30;90.90
35692;DHT22;26978;44.830;-0.674;2022-08-19T15:20:52;28.20;92.10
35692;DHT22;26978;44.830;-0.674;2022-08-19T15:23:17;28.60;92.90